This is the latest recevied weather packets stored in our database for station/object HB9KBJ-4. If no packets are shown the sender has not sent any weather packets the latest 10 day(s).
| Time | Temp. | Humidity | Pressure | Rain* | Wind** | Luminosity | Snow |
|---|---|---|---|---|---|---|---|
| 1777980073 | 18.89° C | 54% | - | 0.51 mm | - | - | - |
| 1777979773 | 18.33° C | 57% | - | 0.51 mm | - | - | - |
| 1777979173 | 17.22° C | 60% | - | 0.51 mm | - | - | - |
| 1777978572 | 16.67° C | 62% | - | 0.51 mm | - | - | - |
| 1777978272 | 16.67° C | 63% | - | 0.51 mm | - | - | - |
| 1777977671 | 16.67° C | 63% | - | 0.51 mm | - | - | - |
| 1777976170 | 14.44° C | 67% | - | 0.51 mm | - | - | - |
| 1777975870 | 14.44° C | 69% | - | 0.51 mm | - | - | - |
| 1777975569 | 13.89° C | 69% | - | 0.51 mm | - | - | - |
| 1777974668 | 13.89° C | 71% | - | 0.51 mm | - | - | - |
| 1777973767 | 12.78° C | 77% | - | 0.51 mm | - | - | - |
| 1777973467 | 12.22° C | 79% | - | 0.51 mm | - | - | - |
| 1777973167 | 12.22° C | 79% | - | 0.51 mm | - | - | - |
| 1777972867 | 11.67° C | 79% | - | 0.51 mm | - | - | - |
| 1777972566 | 11.67° C | 80% | - | 0.51 mm | - | - | - |
| 1777972266 | 11.67° C | 79% | - | 0.51 mm | - | - | - |
| 1777971966 | 11.67° C | 79% | - | 0.51 mm | - | - | - |
| 1777971665 | 11.67° C | 81% | - | 0.51 mm | - | - | - |
| 1777971065 | 11.11° C | 81% | - | 0.51 mm | - | - | - |
| 1777970765 | 10.56° C | 80% | - | 0.51 mm | - | - | - |
| 1777970464 | 11.11° C | 81% | - | 0.51 mm | - | - | - |
| 1777970164 | 10.56° C | 81% | - | 0.51 mm | - | - | - |
| 1777969864 | 10.56° C | 82% | - | 0.51 mm | - | - | - |
| 1777969563 | 10° C | 82% | - | 0.51 mm | - | - | - |
| 1777969263 | 10° C | 83% | - | 0.51 mm | - | - | - |
* Rain since midnight (hover to see other rain measurements)
** Current wind speed in m/s (hover to see current wind gust speed)